sensor_id;sensor_type;location;lat;lon;timestamp;P1;durP1;ratioP1;P2;durP2;ratioP2
74291;SDS011;62687;55.738;37.516;2023-05-10T00:02:42;21.88;;;4.85;;
74291;SDS011;62687;55.738;37.516;2023-05-10T00:05:27;19.13;;;4.43;;
74291;SDS011;62687;55.738;37.516;2023-05-10T00:08:11;13.80;;;4.72;;
74291;SDS011;62687;55.738;37.516;2023-05-10T00:10:55;10.80;;;4.20;;
74291;SDS011;62687;55.738;37.516;2023-05-10T00:13:40;12.57;;;4.28;;
74291;SDS011;62687;55.738;37.516;2023-05-10T00:16:24;18.80;;;4.97;;
74291;SDS011;62687;55.738;37.516;2023-05-10T00:19:09;16.95;;;5.40;;
74291;SDS011;62687;55.738;37.516;2023-05-10T00:21:52;11.05;;;4.43;;
74291;SDS011;62687;55.738;37.516;2023-05-10T00:24:36;15.90;;;5.75;;
74291;SDS011;62687;55.738;37.516;2023-05-10T00:27:20;18.63;;;5.63;;
74291;SDS011;62687;55.738;37.516;2023-05-10T00:30:04;24.50;;;5.47;;
74291;SDS011;62687;55.738;37.516;2023-05-10T00:32:50;13.00;;;4.45;;
74291;SDS011;62687;55.738;37.516;2023-05-10T00:35:35;13.10;;;4.50;;
74291;SDS011;62687;55.738;37.516;2023-05-10T00:38:19;14.18;;;5.10;;
74291;SDS011;62687;55.738;37.516;2023-05-10T00:41:04;8.65;;;4.82;;
74291;SDS011;62687;55.738;37.516;2023-05-10T00:43:48;12.40;;;4.55;;
74291;SDS011;62687;55.738;37.516;2023-05-10T00:46:32;16.65;;;4.72;;
74291;SDS011;62687;55.738;37.516;2023-05-10T00:49:16;14.25;;;4.13;;
74291;SDS011;62687;55.738;37.516;2023-05-10T00:52:01;8.60;;;3.90;;
74291;SDS011;62687;55.738;37.516;2023-05-10T00:54:46;9.80;;;3.90;;
74291;SDS011;62687;55.738;37.516;2023-05-10T00:57:31;11.23;;;3.65;;
74291;SDS011;62687;55.738;37.516;2023-05-10T01:00:15;9.93;;;4.65;;
74291;SDS011;62687;55.738;37.516;2023-05-10T01:03:01;13.90;;;4.30;;
74291;SDS011;62687;55.738;37.516;2023-05-10T01:05:46;10.55;;;4.43;;
74291;SDS011;62687;55.738;37.516;2023-05-10T01:08:31;10.10;;;4.28;;
74291;SDS011;62687;55.738;37.516;2023-05-10T01:11:15;12.50;;;3.95;;
74291;SDS011;62687;55.738;37.516;2023-05-10T01:14:00;8.82;;;3.70;;
74291;SDS011;62687;55.738;37.516;2023-05-10T01:16:46;8.52;;;3.80;;
74291;SDS011;62687;55.738;37.516;2023-05-10T01:19:32;7.05;;;3.83;;
74291;SDS011;62687;55.738;37.516;2023-05-10T01:37:46;9.57;;;4.03;;
74291;SDS011;62687;55.738;37.516;2023-05-10T01:40:38;12.25;;;4.03;;
74291;SDS011;62687;55.738;37.516;2023-05-10T01:43:28;10.32;;;3.50;;
74291;SDS011;62687;55.738;37.516;2023-05-10T01:46:17;13.93;;;3.90;;
74291;SDS011;62687;55.738;37.516;2023-05-10T01:49:14;11.82;;;3.80;;
74291;SDS011;62687;55.738;37.516;2023-05-10T01:52:11;11.98;;;3.90;;
74291;SDS011;62687;55.738;37.516;2023-05-10T01:55:01;12.90;;;3.83;;
74291;SDS011;62687;55.738;37.516;2023-05-10T01:57:51;16.33;;;5.60;;
74291;SDS011;62687;55.738;37.516;2023-05-10T02:00:42;27.02;;;8.13;;
74291;SDS011;62687;55.738;37.516;2023-05-10T02:03:28;12.93;;;5.38;;
74291;SDS011;62687;55.738;37.516;2023-05-10T02:06:13;11.93;;;4.55;;
74291;SDS011;62687;55.738;37.516;2023-05-10T02:09:01;19.02;;;3.95;;
74291;SDS011;62687;55.738;37.516;2023-05-10T02:11:46;7.78;;;3.00;;
74291;SDS011;62687;55.738;37.516;2023-05-10T02:14:34;10.65;;;3.65;;
74291;SDS011;62687;55.738;37.516;2023-05-10T02:17:20;7.07;;;2.60;;
74291;SDS011;62687;55.738;37.516;2023-05-10T02:20:06;8.60;;;3.47;;
74291;SDS011;62687;55.738;37.516;2023-05-10T02:22:52;16.10;;;4.30;;
74291;SDS011;62687;55.738;37.516;2023-05-10T02:25:38;14.50;;;4.40;;
74291;SDS011;62687;55.738;37.516;2023-05-10T02:28:24;15.70;;;4.22;;
74291;SDS011;62687;55.738;37.516;2023-05-10T02:31:10;13.23;;;4.10;;
74291;SDS011;62687;55.738;37.516;2023-05-10T02:33:55;17.63;;;6.78;;
74291;SDS011;62687;55.738;37.516;2023-05-10T02:36:40;9.18;;;3.28;;
74291;SDS011;62687;55.738;37.516;2023-05-10T02:39:26;14.77;;;4.97;;
74291;SDS011;62687;55.738;37.516;2023-05-10T02:42:13;10.88;;;3.38;;
74291;SDS011;62687;55.738;37.516;2023-05-10T02:45:05;19.58;;;3.88;;
74291;SDS011;62687;55.738;37.516;2023-05-10T02:47:55;8.57;;;3.15;;
74291;SDS011;62687;55.738;37.516;2023-05-10T02:50:39;9.15;;;3.88;;
74291;SDS011;62687;55.738;37.516;2023-05-10T02:53:35;16.92;;;4.80;;
74291;SDS011;62687;55.738;37.516;2023-05-10T02:56:25;15.80;;;3.75;;
74291;SDS011;62687;55.738;37.516;2023-05-10T02:59:15;14.80;;;3.85;;
74291;SDS011;62687;55.738;37.516;2023-05-10T03:01:59;17.52;;;4.00;;
74291;SDS011;62687;55.738;37.516;2023-05-10T03:04:44;7.95;;;3.28;;
74291;SDS011;62687;55.738;37.516;2023-05-10T03:07:27;13.60;;;3.97;;
74291;SDS011;62687;55.738;37.516;2023-05-10T03:10:11;19.10;;;4.57;;
74291;SDS011;62687;55.738;37.516;2023-05-10T03:16:22;13.60;;;4.10;;
74291;SDS011;62687;55.738;37.516;2023-05-10T03:22:10;17.50;;;4.55;;
74291;SDS011;62687;55.738;37.516;2023-05-10T03:24:56;13.75;;;3.83;;
74291;SDS011;62687;55.738;37.516;2023-05-10T03:27:42;14.43;;;3.83;;
74291;SDS011;62687;55.738;37.516;2023-05-10T03:30:27;14.50;;;4.38;;
74291;SDS011;62687;55.738;37.516;2023-05-10T03:33:12;15.48;;;4.20;;
74291;SDS011;62687;55.738;37.516;2023-05-10T03:35:57;17.42;;;3.90;;
74291;SDS011;62687;55.738;37.516;2023-05-10T03:38:41;17.63;;;3.80;;
74291;SDS011;62687;55.738;37.516;2023-05-10T03:41:25;10.73;;;3.97;;
74291;SDS011;62687;55.738;37.516;2023-05-10T03:44:09;16.77;;;4.20;;
74291;SDS011;62687;55.738;37.516;2023-05-10T03:46:54;13.63;;;3.85;;
74291;SDS011;62687;55.738;37.516;2023-05-10T03:49:39;13.63;;;3.92;;
74291;SDS011;62687;55.738;37.516;2023-05-10T03:52:23;15.18;;;3.85;;
74291;SDS011;62687;55.738;37.516;2023-05-10T03:55:07;13.95;;;4.55;;
74291;SDS011;62687;55.738;37.516;2023-05-10T03:57:51;11.27;;;3.63;;
74291;SDS011;62687;55.738;37.516;2023-05-10T04:00:40;7.22;;;3.03;;
74291;SDS011;62687;55.738;37.516;2023-05-10T04:06:00;8.43;;;3.75;;
74291;SDS011;62687;55.738;37.516;2023-05-10T04:08:45;16.02;;;3.70;;
74291;SDS011;62687;55.738;37.516;2023-05-10T04:11:29;15.77;;;3.70;;
74291;SDS011;62687;55.738;37.516;2023-05-10T04:14:14;18.38;;;4.25;;
74291;SDS011;62687;55.738;37.516;2023-05-10T04:16:58;12.75;;;4.15;;
74291;SDS011;62687;55.738;37.516;2023-05-10T04:19:42;15.43;;;4.25;;
74291;SDS011;62687;55.738;37.516;2023-05-10T04:22:26;19.95;;;5.18;;
74291;SDS011;62687;55.738;37.516;2023-05-10T04:25:11;9.68;;;3.53;;
74291;SDS011;62687;55.738;37.516;2023-05-10T04:27:55;14.35;;;4.18;;
74291;SDS011;62687;55.738;37.516;2023-05-10T04:30:40;14.18;;;4.18;;
74291;SDS011;62687;55.738;37.516;2023-05-10T04:33:23;15.35;;;3.58;;
74291;SDS011;62687;55.738;37.516;2023-05-10T04:36:07;16.90;;;3.92;;
74291;SDS011;62687;55.738;37.516;2023-05-10T04:38:52;9.65;;;3.83;;
74291;SDS011;62687;55.738;37.516;2023-05-10T04:41:37;13.48;;;4.00;;
74291;SDS011;62687;55.738;37.516;2023-05-10T04:44:21;14.30;;;3.75;;
74291;SDS011;62687;55.738;37.516;2023-05-10T04:47:05;18.52;;;3.55;;
74291;SDS011;62687;55.738;37.516;2023-05-10T04:49:50;10.30;;;3.67;;
74291;SDS011;62687;55.738;37.516;2023-05-10T04:52:34;10.10;;;3.42;;
74291;SDS011;62687;55.738;37.516;2023-05-10T04:55:18;17.92;;;4.13;;
74291;SDS011;62687;55.738;37.516;2023-05-10T04:58:02;14.82;;;3.70;;
74291;SDS011;62687;55.738;37.516;2023-05-10T05:00:46;10.98;;;3.58;;
74291;SDS011;62687;55.738;37.516;2023-05-10T05:03:30;9.00;;;2.90;;
74291;SDS011;62687;55.738;37.516;2023-05-10T05:06:14;12.75;;;3.20;;
74291;SDS011;62687;55.738;37.516;2023-05-10T05:08:58;16.85;;;3.10;;
74291;SDS011;62687;55.738;37.516;2023-05-10T05:11:42;14.32;;;2.63;;
74291;SDS011;62687;55.738;37.516;2023-05-10T05:14:26;7.45;;;2.33;;
74291;SDS011;62687;55.738;37.516;2023-05-10T05:17:10;7.03;;;2.50;;
74291;SDS011;62687;55.738;37.516;2023-05-10T05:20:09;9.82;;;2.70;;
74291;SDS011;62687;55.738;37.516;2023-05-10T05:22:54;7.70;;;3.35;;
74291;SDS011;62687;55.738;37.516;2023-05-10T05:25:38;9.88;;;1.95;;
74291;SDS011;62687;55.738;37.516;2023-05-10T05:28:22;9.38;;;2.30;;
74291;SDS011;62687;55.738;37.516;2023-05-10T05:31:06;11.23;;;2.55;;
74291;SDS011;62687;55.738;37.516;2023-05-10T05:33:54;12.07;;;2.80;;
74291;SDS011;62687;55.738;37.516;2023-05-10T05:36:38;8.10;;;3.03;;
74291;SDS011;62687;55.738;37.516;2023-05-10T05:39:22;10.02;;;2.50;;
74291;SDS011;62687;55.738;37.516;2023-05-10T05:42:07;7.97;;;2.20;;
74291;SDS011;62687;55.738;37.516;2023-05-10T05:44:51;8.90;;;2.17;;
74291;SDS011;62687;55.738;37.516;2023-05-10T05:47:35;13.38;;;2.45;;
74291;SDS011;62687;55.738;37.516;2023-05-10T05:50:20;13.57;;;2.83;;
74291;SDS011;62687;55.738;37.516;2023-05-10T05:53:04;6.07;;;2.05;;
74291;SDS011;62687;55.738;37.516;2023-05-10T05:55:54;11.15;;;2.10;;
74291;SDS011;62687;55.738;37.516;2023-05-10T05:58:40;10.02;;;2.45;;
74291;SDS011;62687;55.738;37.516;2023-05-10T06:01:25;5.10;;;2.15;;
74291;SDS011;62687;55.738;37.516;2023-05-10T06:04:08;7.07;;;2.20;;
74291;SDS011;62687;55.738;37.516;2023-05-10T06:06:52;5.57;;;1.98;;
74291;SDS011;62687;55.738;37.516;2023-05-10T06:09:37;11.27;;;2.78;;
74291;SDS011;62687;55.738;37.516;2023-05-10T06:12:21;11.55;;;2.40;;
74291;SDS011;62687;55.738;37.516;2023-05-10T06:15:05;13.73;;;2.38;;
74291;SDS011;62687;55.738;37.516;2023-05-10T06:20:34;6.20;;;1.98;;
74291;SDS011;62687;55.738;37.516;2023-05-10T06:23:18;10.07;;;1.83;;
74291;SDS011;62687;55.738;37.516;2023-05-10T06:26:02;6.03;;;2.00;;
74291;SDS011;62687;55.738;37.516;2023-05-10T06:28:46;4.38;;;2.05;;
74291;SDS011;62687;55.738;37.516;2023-05-10T06:31:30;7.47;;;2.50;;
74291;SDS011;62687;55.738;37.516;2023-05-10T06:34:14;10.02;;;2.42;;
74291;SDS011;62687;55.738;37.516;2023-05-10T06:36:59;6.72;;;2.72;;
74291;SDS011;62687;55.738;37.516;2023-05-10T06:39:43;11.50;;;2.33;;
74291;SDS011;62687;55.738;37.516;2023-05-10T06:42:27;6.13;;;2.35;;
74291;SDS011;62687;55.738;37.516;2023-05-10T06:45:11;6.20;;;1.75;;
74291;SDS011;62687;55.738;37.516;2023-05-10T06:47:56;8.75;;;2.00;;
74291;SDS011;62687;55.738;37.516;2023-05-10T06:50:41;6.93;;;1.83;;
74291;SDS011;62687;55.738;37.516;2023-05-10T06:53:25;6.43;;;2.20;;
74291;SDS011;62687;55.738;37.516;2023-05-10T06:56:08;8.38;;;1.70;;
74291;SDS011;62687;55.738;37.516;2023-05-10T06:58:52;4.43;;;1.60;;
74291;SDS011;62687;55.738;37.516;2023-05-10T07:01:36;3.17;;;1.50;;
74291;SDS011;62687;55.738;37.516;2023-05-10T07:04:20;3.85;;;1.23;;
74291;SDS011;62687;55.738;37.516;2023-05-10T07:07:04;11.70;;;1.85;;
74291;SDS011;62687;55.738;37.516;2023-05-10T07:09:48;8.75;;;1.63;;
74291;SDS011;62687;55.738;37.516;2023-05-10T07:15:17;3.22;;;1.55;;
74291;SDS011;62687;55.738;37.516;2023-05-10T07:18:02;5.15;;;1.42;;
74291;SDS011;62687;55.738;37.516;2023-05-10T07:20:47;6.10;;;1.55;;
74291;SDS011;62687;55.738;37.516;2023-05-10T07:23:31;5.78;;;1.55;;
74291;SDS011;62687;55.738;37.516;2023-05-10T07:26:15;9.55;;;1.80;;
74291;SDS011;62687;55.738;37.516;2023-05-10T07:29:00;5.45;;;1.23;;
74291;SDS011;62687;55.738;37.516;2023-05-10T07:31:44;2.50;;;0.90;;
74291;SDS011;62687;55.738;37.516;2023-05-10T07:34:28;5.72;;;1.50;;
74291;SDS011;62687;55.738;37.516;2023-05-10T07:39:57;4.88;;;1.40;;
74291;SDS011;62687;55.738;37.516;2023-05-10T07:42:41;5.45;;;1.30;;
74291;SDS011;62687;55.738;37.516;2023-05-10T07:45:25;4.32;;;1.70;;
74291;SDS011;62687;55.738;37.516;2023-05-10T07:48:09;11.07;;;1.90;;
74291;SDS011;62687;55.738;37.516;2023-05-10T07:50:53;9.40;;;1.40;;
74291;SDS011;62687;55.738;37.516;2023-05-10T07:53:37;5.38;;;1.80;;
74291;SDS011;62687;55.738;37.516;2023-05-10T07:56:25;4.38;;;1.20;;
74291;SDS011;62687;55.738;37.516;2023-05-10T07:59:16;2.10;;;1.13;;
74291;SDS011;62687;55.738;37.516;2023-05-10T08:02:00;4.15;;;1.25;;
74291;SDS011;62687;55.738;37.516;2023-05-10T08:04:44;5.13;;;1.52;;
74291;SDS011;62687;55.738;37.516;2023-05-10T08:07:29;2.65;;;1.23;;
74291;SDS011;62687;55.738;37.516;2023-05-10T08:10:13;8.80;;;1.60;;
74291;SDS011;62687;55.738;37.516;2023-05-10T08:12:57;8.85;;;1.98;;
74291;SDS011;62687;55.738;37.516;2023-05-10T08:15:42;4.65;;;1.30;;
74291;SDS011;62687;55.738;37.516;2023-05-10T08:18:26;3.53;;;1.30;;
74291;SDS011;62687;55.738;37.516;2023-05-10T08:21:10;8.55;;;1.40;;
74291;SDS011;62687;55.738;37.516;2023-05-10T08:23:38;10.07;;;1.60;;
74291;SDS011;62687;55.738;37.516;2023-05-10T08:26:23;3.50;;;1.67;;
74291;SDS011;62687;55.738;37.516;2023-05-10T08:29:06;7.80;;;1.50;;
74291;SDS011;62687;55.738;37.516;2023-05-10T08:31:50;6.90;;;1.67;;
74291;SDS011;62687;55.738;37.516;2023-05-10T08:34:34;7.32;;;1.80;;
74291;SDS011;62687;55.738;37.516;2023-05-10T08:37:18;4.38;;;1.42;;
74291;SDS011;62687;55.738;37.516;2023-05-10T08:40:02;4.78;;;1.50;;
74291;SDS011;62687;55.738;37.516;2023-05-10T08:43:03;4.90;;;2.03;;
74291;SDS011;62687;55.738;37.516;2023-05-10T08:45:50;5.13;;;2.35;;
74291;SDS011;62687;55.738;37.516;2023-05-10T08:48:37;8.23;;;1.98;;
74291;SDS011;62687;55.738;37.516;2023-05-10T08:51:23;4.72;;;1.50;;
74291;SDS011;62687;55.738;37.516;2023-05-10T08:54:11;4.45;;;1.33;;
74291;SDS011;62687;55.738;37.516;2023-05-10T08:56:56;4.90;;;1.35;;
74291;SDS011;62687;55.738;37.516;2023-05-10T08:59:40;4.30;;;1.63;;
74291;SDS011;62687;55.738;37.516;2023-05-10T09:02:25;2.88;;;1.30;;
74291;SDS011;62687;55.738;37.516;2023-05-10T09:05:11;3.38;;;1.45;;
74291;SDS011;62687;55.738;37.516;2023-05-10T09:07:56;2.85;;;1.17;;
74291;SDS011;62687;55.738;37.516;2023-05-10T09:10:40;2.63;;;1.25;;
74291;SDS011;62687;55.738;37.516;2023-05-10T09:13:27;3.47;;;1.10;;
74291;SDS011;62687;55.738;37.516;2023-05-10T09:16:12;3.78;;;1.40;;
74291;SDS011;62687;55.738;37.516;2023-05-10T09:18:56;2.85;;;1.20;;
74291;SDS011;62687;55.738;37.516;2023-05-10T09:21:40;3.20;;;1.30;;
74291;SDS011;62687;55.738;37.516;2023-05-10T09:24:28;3.92;;;1.25;;
74291;SDS011;62687;55.738;37.516;2023-05-10T09:27:14;5.63;;;1.50;;
74291;SDS011;62687;55.738;37.516;2023-05-10T09:29:58;4.47;;;1.50;;
74291;SDS011;62687;55.738;37.516;2023-05-10T09:32:43;7.10;;;1.60;;
74291;SDS011;62687;55.738;37.516;2023-05-10T09:35:29;3.35;;;1.25;;
74291;SDS011;62687;55.738;37.516;2023-05-10T09:38:14;6.25;;;1.60;;
74291;SDS011;62687;55.738;37.516;2023-05-10T09:40:58;8.73;;;1.70;;
74291;SDS011;62687;55.738;37.516;2023-05-10T09:43:46;6.22;;;1.13;;
74291;SDS011;62687;55.738;37.516;2023-05-10T09:46:34;5.47;;;1.65;;
74291;SDS011;62687;55.738;37.516;2023-05-10T09:49:20;5.88;;;1.88;;
74291;SDS011;62687;55.738;37.516;2023-05-10T09:52:05;4.32;;;1.45;;
74291;SDS011;62687;55.738;37.516;2023-05-10T09:54:54;6.78;;;1.25;;
74291;SDS011;62687;55.738;37.516;2023-05-10T09:57:38;5.80;;;1.55;;
74291;SDS011;62687;55.738;37.516;2023-05-10T10:00:23;8.20;;;1.52;;
74291;SDS011;62687;55.738;37.516;2023-05-10T10:03:15;4.95;;;1.52;;
74291;SDS011;62687;55.738;37.516;2023-05-10T10:06:00;5.20;;;1.73;;
74291;SDS011;62687;55.738;37.516;2023-05-10T10:08:44;5.60;;;2.50;;
74291;SDS011;62687;55.738;37.516;2023-05-10T10:11:29;6.32;;;1.45;;
74291;SDS011;62687;55.738;37.516;2023-05-10T10:14:13;7.45;;;1.30;;
74291;SDS011;62687;55.738;37.516;2023-05-10T10:16:57;7.05;;;1.67;;
74291;SDS011;62687;55.738;37.516;2023-05-10T10:19:44;5.00;;;2.35;;
74291;SDS011;62687;55.738;37.516;2023-05-10T10:22:29;5.00;;;1.73;;
74291;SDS011;62687;55.738;37.516;2023-05-10T10:25:14;5.40;;;1.58;;
74291;SDS011;62687;55.738;37.516;2023-05-10T10:28:03;10.02;;;2.22;;
74291;SDS011;62687;55.738;37.516;2023-05-10T10:31:23;6.75;;;1.88;;
74291;SDS011;62687;55.738;37.516;2023-05-10T10:34:29;7.07;;;1.75;;
74291;SDS011;62687;55.738;37.516;2023-05-10T10:37:14;8.98;;;2.00;;
74291;SDS011;62687;55.738;37.516;2023-05-10T10:39:58;7.50;;;2.13;;
74291;SDS011;62687;55.738;37.516;2023-05-10T10:42:43;4.57;;;1.98;;
74291;SDS011;62687;55.738;37.516;2023-05-10T10:45:28;7.13;;;2.25;;
74291;SDS011;62687;55.738;37.516;2023-05-10T10:48:20;7.05;;;2.20;;
74291;SDS011;62687;55.738;37.516;2023-05-10T10:51:05;12.65;;;2.20;;
74291;SDS011;62687;55.738;37.516;2023-05-10T10:53:50;10.73;;;1.75;;
74291;SDS011;62687;55.738;37.516;2023-05-10T10:56:34;7.45;;;2.50;;
74291;SDS011;62687;55.738;37.516;2023-05-10T10:59:26;15.85;;;2.97;;
74291;SDS011;62687;55.738;37.516;2023-05-10T11:08:27;24.05;;;2.95;;
74291;SDS011;62687;55.738;37.516;2023-05-10T11:11:15;9.85;;;1.95;;
74291;SDS011;62687;55.738;37.516;2023-05-10T11:14:03;9.38;;;2.42;;
74291;SDS011;62687;55.738;37.516;2023-05-10T11:16:48;4.63;;;2.47;;
74291;SDS011;62687;55.738;37.516;2023-05-10T11:19:33;7.93;;;2.53;;
74291;SDS011;62687;55.738;37.516;2023-05-10T11:22:17;5.10;;;1.90;;
74291;SDS011;62687;55.738;37.516;2023-05-10T11:25:01;9.48;;;2.35;;
74291;SDS011;62687;55.738;37.516;2023-05-10T11:27:49;8.85;;;3.95;;
74291;SDS011;62687;55.738;37.516;2023-05-10T11:30:33;5.38;;;2.35;;
74291;SDS011;62687;55.738;37.516;2023-05-10T11:33:18;7.13;;;2.95;;
74291;SDS011;62687;55.738;37.516;2023-05-10T11:36:03;7.70;;;2.08;;
74291;SDS011;62687;55.738;37.516;2023-05-10T11:38:48;12.68;;;2.28;;
74291;SDS011;62687;55.738;37.516;2023-05-10T11:41:32;7.85;;;2.17;;
74291;SDS011;62687;55.738;37.516;2023-05-10T11:44:17;7.75;;;2.22;;
74291;SDS011;62687;55.738;37.516;2023-05-10T11:47:01;5.63;;;1.52;;
74291;SDS011;62687;55.738;37.516;2023-05-10T11:49:47;7.35;;;2.78;;
74291;SDS011;62687;55.738;37.516;2023-05-10T11:52:35;14.07;;;2.30;;
74291;SDS011;62687;55.738;37.516;2023-05-10T11:55:21;8.13;;;1.40;;
74291;SDS011;62687;55.738;37.516;2023-05-10T11:58:06;7.28;;;1.90;;
74291;SDS011;62687;55.738;37.516;2023-05-10T12:00:49;11.43;;;2.40;;
74291;SDS011;62687;55.738;37.516;2023-05-10T12:03:34;7.93;;;1.88;;
74291;SDS011;62687;55.738;37.516;2023-05-10T12:06:20;8.00;;;2.30;;
74291;SDS011;62687;55.738;37.516;2023-05-10T12:09:08;8.68;;;2.80;;
74291;SDS011;62687;55.738;37.516;2023-05-10T12:11:54;7.10;;;1.80;;
74291;SDS011;62687;55.738;37.516;2023-05-10T12:14:40;8.95;;;1.95;;
74291;SDS011;62687;55.738;37.516;2023-05-10T12:17:27;6.50;;;1.60;;
74291;SDS011;62687;55.738;37.516;2023-05-10T12:20:15;6.35;;;2.03;;
74291;SDS011;62687;55.738;37.516;2023-05-10T12:23:08;10.82;;;2.47;;
74291;SDS011;62687;55.738;37.516;2023-05-10T12:25:53;4.35;;;2.13;;
74291;SDS011;62687;55.738;37.516;2023-05-10T12:28:45;10.77;;;1.92;;
74291;SDS011;62687;55.738;37.516;2023-05-10T12:31:29;11.63;;;1.85;;
74291;SDS011;62687;55.738;37.516;2023-05-10T12:34:21;12.75;;;2.53;;
74291;SDS011;62687;55.738;37.516;2023-05-10T12:37:14;7.85;;;1.88;;
74291;SDS011;62687;55.738;37.516;2023-05-10T12:39:58;9.38;;;2.03;;
74291;SDS011;62687;55.738;37.516;2023-05-10T12:42:42;5.90;;;1.60;;
74291;SDS011;62687;55.738;37.516;2023-05-10T12:45:28;17.08;;;2.10;;
74291;SDS011;62687;55.738;37.516;2023-05-10T12:48:13;8.20;;;1.95;;
74291;SDS011;62687;55.738;37.516;2023-05-10T12:50:57;10.25;;;1.90;;
74291;SDS011;62687;55.738;37.516;2023-05-10T12:53:41;3.97;;;1.67;;
74291;SDS011;62687;55.738;37.516;2023-05-10T12:56:25;13.10;;;2.40;;
74291;SDS011;62687;55.738;37.516;2023-05-10T12:59:09;5.78;;;1.98;;
74291;SDS011;62687;55.738;37.516;2023-05-10T13:01:54;7.18;;;1.85;;
74291;SDS011;62687;55.738;37.516;2023-05-10T13:04:37;10.25;;;1.80;;
74291;SDS011;62687;55.738;37.516;2023-05-10T13:07:23;8.15;;;1.80;;
74291;SDS011;62687;55.738;37.516;2023-05-10T13:10:07;7.18;;;2.10;;
74291;SDS011;62687;55.738;37.516;2023-05-10T13:12:51;9.10;;;2.78;;
74291;SDS011;62687;55.738;37.516;2023-05-10T13:15:35;7.60;;;2.50;;
74291;SDS011;62687;55.738;37.516;2023-05-10T13:18:19;6.55;;;1.77;;
74291;SDS011;62687;55.738;37.516;2023-05-10T13:21:04;12.38;;;1.83;;
74291;SDS011;62687;55.738;37.516;2023-05-10T13:23:49;5.10;;;1.33;;
74291;SDS011;62687;55.738;37.516;2023-05-10T13:26:33;5.43;;;1.63;;
74291;SDS011;62687;55.738;37.516;2023-05-10T13:29:17;3.70;;;1.30;;
74291;SDS011;62687;55.738;37.516;2023-05-10T13:32:02;7.03;;;2.03;;
74291;SDS011;62687;55.738;37.516;2023-05-10T13:34:46;8.90;;;1.77;;
74291;SDS011;62687;55.738;37.516;2023-05-10T13:37:30;14.00;;;2.20;;
74291;SDS011;62687;55.738;37.516;2023-05-10T13:40:16;8.15;;;2.03;;
74291;SDS011;62687;55.738;37.516;2023-05-10T13:42:59;8.93;;;2.22;;
74291;SDS011;62687;55.738;37.516;2023-05-10T13:45:43;7.95;;;2.00;;
74291;SDS011;62687;55.738;37.516;2023-05-10T13:48:28;3.45;;;1.20;;
74291;SDS011;62687;55.738;37.516;2023-05-10T13:51:12;6.70;;;2.10;;
74291;SDS011;62687;55.738;37.516;2023-05-10T13:53:56;11.43;;;2.38;;
74291;SDS011;62687;55.738;37.516;2023-05-10T13:56:41;5.43;;;1.50;;
74291;SDS011;62687;55.738;37.516;2023-05-10T13:59:26;4.20;;;1.52;;
74291;SDS011;62687;55.738;37.516;2023-05-10T14:02:10;9.18;;;1.48;;
74291;SDS011;62687;55.738;37.516;2023-05-10T14:04:56;11.27;;;3.15;;
74291;SDS011;62687;55.738;37.516;2023-05-10T14:07:40;6.50;;;1.55;;
74291;SDS011;62687;55.738;37.516;2023-05-10T14:10:26;4.35;;;1.27;;
74291;SDS011;62687;55.738;37.516;2023-05-10T14:13:10;8.48;;;1.67;;
74291;SDS011;62687;55.738;37.516;2023-05-10T14:18:39;4.25;;;1.58;;
74291;SDS011;62687;55.738;37.516;2023-05-10T14:21:23;8.77;;;1.85;;
74291;SDS011;62687;55.738;37.516;2023-05-10T14:24:08;6.78;;;1.80;;
74291;SDS011;62687;55.738;37.516;2023-05-10T14:26:52;8.63;;;2.45;;
74291;SDS011;62687;55.738;37.516;2023-05-10T14:29:39;10.25;;;2.42;;
74291;SDS011;62687;55.738;37.516;2023-05-10T14:32:23;14.50;;;2.67;;
74291;SDS011;62687;55.738;37.516;2023-05-10T14:35:07;5.40;;;1.80;;
74291;SDS011;62687;55.738;37.516;2023-05-10T14:37:52;6.25;;;1.70;;
74291;SDS011;62687;55.738;37.516;2023-05-10T14:40:37;6.85;;;1.73;;
74291;SDS011;62687;55.738;37.516;2023-05-10T14:43:21;14.07;;;2.15;;
74291;SDS011;62687;55.738;37.516;2023-05-10T14:46:06;10.05;;;1.70;;
74291;SDS011;62687;55.738;37.516;2023-05-10T14:48:51;4.50;;;1.50;;
74291;SDS011;62687;55.738;37.516;2023-05-10T14:54:20;7.20;;;1.70;;
74291;SDS011;62687;55.738;37.516;2023-05-10T14:57:05;6.88;;;2.28;;
74291;SDS011;62687;55.738;37.516;2023-05-10T14:59:50;6.18;;;1.83;;
74291;SDS011;62687;55.738;37.516;2023-05-10T15:02:35;13.32;;;2.40;;
74291;SDS011;62687;55.738;37.516;2023-05-10T15:05:20;11.55;;;2.35;;
74291;SDS011;62687;55.738;37.516;2023-05-10T15:08:05;9.30;;;2.13;;
74291;SDS011;62687;55.738;37.516;2023-05-10T15:10:51;8.05;;;1.48;;
74291;SDS011;62687;55.738;37.516;2023-05-10T15:13:36;6.72;;;1.83;;
74291;SDS011;62687;55.738;37.516;2023-05-10T15:16:21;9.63;;;2.40;;
74291;SDS011;62687;55.738;37.516;2023-05-10T15:19:05;13.50;;;2.60;;
74291;SDS011;62687;55.738;37.516;2023-05-10T15:21:50;8.80;;;2.78;;
74291;SDS011;62687;55.738;37.516;2023-05-10T15:24:34;8.60;;;2.42;;
74291;SDS011;62687;55.738;37.516;2023-05-10T15:27:19;10.07;;;2.40;;
74291;SDS011;62687;55.738;37.516;2023-05-10T15:30:04;23.25;;;3.28;;
74291;SDS011;62687;55.738;37.516;2023-05-10T15:32:49;8.75;;;2.47;;
74291;SDS011;62687;55.738;37.516;2023-05-10T15:35:34;16.60;;;3.20;;
74291;SDS011;62687;55.738;37.516;2023-05-10T15:38:20;14.43;;;2.70;;
74291;SDS011;62687;55.738;37.516;2023-05-10T15:41:05;15.63;;;5.05;;
74291;SDS011;62687;55.738;37.516;2023-05-10T15:43:49;8.68;;;2.15;;
74291;SDS011;62687;55.738;37.516;2023-05-10T15:46:33;11.13;;;2.38;;
74291;SDS011;62687;55.738;37.516;2023-05-10T15:49:18;8.02;;;1.85;;
74291;SDS011;62687;55.738;37.516;2023-05-10T15:52:02;4.32;;;1.60;;
74291;SDS011;62687;55.738;37.516;2023-05-10T15:54:46;5.72;;;1.98;;
74291;SDS011;62687;55.738;37.516;2023-05-10T15:57:30;12.55;;;3.28;;
74291;SDS011;62687;55.738;37.516;2023-05-10T16:00:14;12.27;;;2.70;;
74291;SDS011;62687;55.738;37.516;2023-05-10T16:03:00;6.13;;;1.98;;
74291;SDS011;62687;55.738;37.516;2023-05-10T16:05:44;6.57;;;2.42;;
74291;SDS011;62687;55.738;37.516;2023-05-10T16:08:29;7.47;;;1.85;;
74291;SDS011;62687;55.738;37.516;2023-05-10T16:11:13;5.80;;;1.95;;
74291;SDS011;62687;55.738;37.516;2023-05-10T16:13:57;14.18;;;1.85;;
74291;SDS011;62687;55.738;37.516;2023-05-10T16:16:42;8.82;;;2.10;;
74291;SDS011;62687;55.738;37.516;2023-05-10T16:19:27;8.45;;;1.98;;
74291;SDS011;62687;55.738;37.516;2023-05-10T16:22:10;5.32;;;1.80;;
74291;SDS011;62687;55.738;37.516;2023-05-10T16:24:55;7.20;;;2.97;;
74291;SDS011;62687;55.738;37.516;2023-05-10T16:30:24;14.10;;;2.42;;
74291;SDS011;62687;55.738;37.516;2023-05-10T16:33:09;6.93;;;2.10;;
74291;SDS011;62687;55.738;37.516;2023-05-10T16:35:53;11.43;;;2.15;;
74291;SDS011;62687;55.738;37.516;2023-05-10T16:38:38;16.30;;;2.83;;
74291;SDS011;62687;55.738;37.516;2023-05-10T16:41:22;10.00;;;2.08;;
74291;SDS011;62687;55.738;37.516;2023-05-10T16:44:06;13.30;;;2.00;;
74291;SDS011;62687;55.738;37.516;2023-05-10T16:46:50;10.80;;;2.30;;
74291;SDS011;62687;55.738;37.516;2023-05-10T16:52:20;11.13;;;2.45;;
74291;SDS011;62687;55.738;37.516;2023-05-10T16:55:04;13.10;;;2.95;;
74291;SDS011;62687;55.738;37.516;2023-05-10T16:57:49;11.70;;;2.47;;
74291;SDS011;62687;55.738;37.516;2023-05-10T17:00:33;14.25;;;2.42;;
74291;SDS011;62687;55.738;37.516;2023-05-10T17:03:17;9.73;;;2.45;;
74291;SDS011;62687;55.738;37.516;2023-05-10T17:06:01;5.97;;;1.85;;